Time;durP1;ratioP1;P1;durP2;ratioP2;P2;SDS_P1;SDS_P2;PMS_P1;PMS_P2;Temp;Humidity;BMP_temperature;BMP_pressure;BME280_temperature;BME280_humidity;BME280_pressure;Samples;Min_cycle;Max_cycle;Signal;HPM_P1;HPM_P2
2021/07/21 00:00:32;;;;;;;4.30;2.72;;;;;;;21.30;62.17;101661.84;5018994;28;20059;-45
2021/07/21 00:02:59;;;;;;;5.93;3.25;;;;;;;21.36;61.71;101674.34;5005192;28;20707;-46
2021/07/21 00:05:27;;;;;;;6.18;3.28;;;;;;;21.36;62.13;101676.34;5018041;28;20056;-48
2021/07/21 00:07:55;;;;;;;5.22;3.05;;;;;;;21.32;61.98;101683.97;5021995;28;20042;-43
2021/07/21 00:10:24;;;;;;;4.82;3.10;;;;;;;21.30;61.92;101680.75;5022301;28;20064;-46
2021/07/21 00:15:40;;;;;;;5.13;3.40;;;;;;;21.21;62.41;101676.28;5016940;28;20053;-47
2021/07/21 00:18:18;;;;;;;3.10;2.80;;;;;;;21.21;62.09;101670.66;5024518;28;20057;-46
2021/07/21 00:20:47;;;;;;;5.30;3.28;;;;;;;21.16;62.24;101682.28;5019455;28;20045;-46
2021/07/21 00:23:16;;;;;;;6.10;3.13;;;;;;;21.11;62.58;101679.84;5024355;28;20106;-45
2021/07/21 00:25:44;;;;;;;5.30;2.92;;;;;;;21.09;62.47;101681.44;5022432;28;20045;-47
2021/07/21 00:28:12;;;;;;;6.78;3.33;;;;;;;21.10;62.42;101681.03;5021263;28;20544;-44
2021/07/21 00:30:38;;;;;;;5.60;3.55;;;;;;;21.03;62.70;101675.34;5021094;28;20050;-46
2021/07/21 00:33:05;;;;;;;9.38;3.88;;;;;;;20.93;62.80;101684.56;5018141;28;20162;-45
2021/07/21 00:35:32;;;;;;;9.23;5.13;;;;;;;20.80;63.08;101680.44;5017347;28;20164;-46
2021/07/21 00:37:59;;;;;;;14.13;8.18;;;;;;;20.67;63.47;101681.16;5022354;28;20059;-45
2021/07/21 00:40:26;;;;;;;15.52;9.70;;;;;;;20.58;63.84;101675.88;5018170;28;20053;-43
2021/07/21 00:42:54;;;;;;;15.23;11.32;;;;;;;20.56;63.88;101672.63;5021460;28;20136;-44
2021/07/21 00:45:20;;;;;;;11.63;8.18;;;;;;;20.54;63.74;101680.66;5016707;28;20071;-43
2021/07/21 00:47:47;;;;;;;11.90;7.43;;;;;;;20.44;64.46;101676.56;5017262;28;20463;-44
2021/07/21 00:50:14;;;;;;;7.50;6.22;;;;;;;20.39;64.35;101671.28;5019982;28;20513;-44
2021/07/21 00:52:42;;;;;;;8.45;6.57;;;;;;;20.35;64.67;101678.09;5018150;28;20057;-44
2021/07/21 00:55:12;;;;;;;14.30;7.05;;;;;;;20.31;64.90;101678.06;5020982;28;20061;-43
2021/07/21 00:57:39;;;;;;;9.60;5.68;;;;;;;20.30;65.03;101678.47;5021005;28;20418;-44
2021/07/21 01:00:10;;;;;;;7.22;4.80;;;;;;;20.33;65.30;101680.50;5021636;28;20045;-43
2021/07/21 01:02:37;;;;;;;8.63;5.70;;;;;;;20.38;65.26;101678.13;5019782;28;20057;-52
2021/07/21 01:05:12;;;;;;;11.98;7.30;;;;;;;20.40;65.45;101674.91;5021427;28;20052;-49
2021/07/21 01:07:43;;;;;;;11.45;6.85;;;;;;;20.37;65.25;101675.69;5018867;28;20053;-49
2021/07/21 01:10:11;;;;;;;9.10;5.32;;;;;;;20.28;65.76;101672.44;5018018;28;20053;-46
2021/07/21 01:13:00;;;;;;;16.17;7.07;;;;;;;20.18;66.00;101679.53;5019388;28;20045;-42
2021/07/21 01:15:41;;;;;;;14.18;7.50;;;;;;;20.17;66.21;101677.94;5018014;28;20056;-51
2021/07/21 01:18:13;;;;;;;15.73;7.90;;;;;;;20.24;65.68;101680.00;5017106;28;20061;-45
2021/07/21 01:21:17;;;;;;;12.82;6.85;;;;;;;20.14;66.20;101675.06;5018973;28;20135;-48
2021/07/21 01:23:47;;;;;;;13.43;8.27;;;;;;;20.12;66.04;101666.22;5018491;28;20092;-43
2021/07/21 01:26:42;;;;;;;13.77;7.22;;;;;;;20.08;66.15;101673.81;5022231;28;20053;-43
2021/07/21 01:29:09;;;;;;;13.48;7.45;;;;;;;20.09;66.00;101676.25;5018338;28;20049;-44
2021/07/21 01:31:41;;;;;;;12.60;7.22;;;;;;;20.00;66.23;101679.38;5019530;28;20041;-54
2021/07/21 01:34:10;;;;;;;11.52;6.57;;;;;;;20.05;66.18;101664.94;5019897;28;20072;-44
2021/07/21 01:36:41;;;;;;;11.32;6.28;;;;;;;20.01;66.29;101668.94;5017960;28;20133;-44
2021/07/21 01:39:12;;;;;;;12.88;6.57;;;;;;;20.05;66.18;101675.38;5017323;28;20058;-46
2021/07/21 01:41:45;;;;;;;8.48;6.10;;;;;;;20.16;65.67;101675.47;5018584;28;20140;-47
2021/07/21 01:44:28;;;;;;;9.02;6.30;;;;;;;20.13;65.85;101682.69;5020425;28;20056;-47
2021/07/21 01:47:00;;;;;;;9.80;6.45;;;;;;;20.10;66.05;101672.22;5002000;28;20077;-52
2021/07/21 01:49:33;;;;;;;9.10;6.18;;;;;;;20.11;65.74;101675.84;5017594;28;20057;-47
2021/07/21 01:52:06;;;;;;;10.60;6.47;;;;;;;20.01;65.89;101680.97;5017812;28;20057;-48
2021/07/21 01:54:33;;;;;;;13.35;6.60;;;;;;;19.92;66.16;101679.69;5021763;28;20137;-44
2021/07/21 01:57:01;;;;;;;10.73;6.00;;;;;;;19.96;66.23;101678.50;5022335;28;20052;-43
2021/07/21 01:59:30;;;;;;;9.18;5.38;;;;;;;19.86;66.66;101667.97;5016898;28;20053;-51
2021/07/21 02:02:00;;;;;;;10.82;5.07;;;;;;;19.79;66.93;101672.72;5022105;28;20398;-44
2021/07/21 02:04:29;;;;;;;10.32;5.15;;;;;;;19.73;66.78;101663.81;5023233;28;20049;-49
2021/07/21 02:06:56;;;;;;;6.82;4.53;;;;;;;19.72;66.94;101676.28;5021848;28;20053;-47
2021/07/21 02:09:24;;;;;;;6.90;4.45;;;;;;;19.67;67.18;101668.16;5024788;28;20071;-46
2021/07/21 02:11:51;;;;;;;10.63;4.97;;;;;;;19.68;66.98;101666.16;5019967;28;20132;-48
2021/07/21 02:14:19;;;;;;;6.60;4.40;;;;;;;19.66;67.33;101675.00;5023472;28;20045;-45
2021/07/21 02:16:46;;;;;;;10.35;5.13;;;;;;;19.73;66.91;101672.25;5004899;28;20060;-44
2021/07/21 02:19:13;;;;;;;7.25;3.70;;;;;;;19.70;66.97;101664.59;5022717;28;20063;-48
2021/07/21 02:21:41;;;;;;;5.63;4.30;;;;;;;19.65;67.17;101667.75;5023392;28;20072;-44
2021/07/21 02:24:09;;;;;;;9.60;4.15;;;;;;;19.64;67.09;101670.94;5022652;28;20458;-44
2021/07/21 02:26:40;;;;;;;5.47;4.28;;;;;;;19.59;67.21;101669.28;5018823;28;20952;-45
2021/07/21 02:29:08;;;;;;;10.48;4.82;;;;;;;19.55;66.95;101679.69;5022839;28;20528;-45
2021/07/21 02:31:53;;;;;;;8.88;4.05;;;;;;;19.50;67.66;101670.78;5022005;28;20053;-44
2021/07/21 02:34:22;;;;;;;6.30;4.07;;;;;;;19.55;67.11;101678.84;5023222;28;20069;-44
2021/07/21 02:36:49;;;;;;;6.63;4.15;;;;;;;19.53;67.29;101670.81;5025074;28;20639;-45
2021/07/21 02:39:16;;;;;;;7.43;4.70;;;;;;;19.49;67.26;101681.19;5019804;28;20068;-53
2021/07/21 02:41:44;;;;;;;7.50;5.50;;;;;;;19.43;67.39;101683.53;5022315;28;20049;-51
2021/07/21 02:44:11;;;;;;;6.30;4.95;;;;;;;19.41;67.67;101685.13;5022646;28;20054;-49
2021/07/21 02:46:38;;;;;;;9.32;4.80;;;;;;;19.39;67.53;101687.50;5034774;28;20162;-43
2021/07/21 02:49:05;;;;;;;8.77;5.45;;;;;;;19.36;67.55;101682.63;5016777;28;20089;-46
2021/07/21 02:51:49;;;;;;;6.03;4.25;;;;;;;19.24;68.07;101686.50;5020936;28;20045;-43
2021/07/21 02:54:18;;;;;;;9.20;5.40;;;;;;;19.25;67.98;101687.28;5023994;28;20383;-44
2021/07/21 02:56:50;;;;;;;6.78;5.05;;;;;;;19.22;68.19;101685.25;5019314;28;20120;-45
2021/07/21 02:59:21;;;;;;;8.25;4.60;;;;;;;19.25;67.84;101678.84;5023778;28;20128;-43
2021/07/21 03:01:49;;;;;;;8.93;5.25;;;;;;;19.30;67.73;101684.16;5034803;28;20067;-43
2021/07/21 03:04:21;;;;;;;7.65;5.57;;;;;;;19.31;67.86;101686.56;5021446;28;20049;-42
2021/07/21 03:06:52;;;;;;;10.60;5.95;;;;;;;19.30;67.64;101689.78;5021677;28;20502;-53
2021/07/21 03:09:21;;;;;;;9.70;6.32;;;;;;;19.23;68.00;101684.06;5023096;28;20053;-44
2021/07/21 03:11:50;;;;;;;12.98;6.57;;;;;;;19.18;68.14;101684.38;5020330;28;20056;-44
2021/07/21 03:14:18;;;;;;;10.02;7.03;;;;;;;19.20;68.09;101676.38;5016795;28;20057;-43
2021/07/21 03:16:48;;;;;;;9.25;6.55;;;;;;;19.24;68.19;101671.66;5020497;28;20071;-48
2021/07/21 03:19:20;;;;;;;9.15;6.63;;;;;;;19.28;67.69;101670.50;5021108;28;20721;-43
2021/07/21 03:21:47;;;;;;;9.88;6.55;;;;;;;19.25;67.79;101673.25;5023345;28;20148;-48
2021/07/21 03:24:14;;;;;;;12.70;7.07;;;;;;;19.21;67.90;101675.22;5019484;28;20653;-43
2021/07/21 03:26:44;;;;;;;10.73;7.00;;;;;;;19.14;68.11;101675.13;5018688;28;20049;-46
2021/07/21 03:29:11;;;;;;;12.93;6.85;;;;;;;19.07;68.43;101669.41;5004675;28;20065;-44
2021/07/21 03:31:40;;;;;;;10.50;7.05;;;;;;;19.04;68.47;101670.16;5024091;28;20068;-51
2021/07/21 03:34:10;;;;;;;9.25;6.75;;;;;;;19.07;68.57;101672.19;5025359;28;20606;-47
2021/07/21 03:36:43;;;;;;;14.68;7.80;;;;;;;19.08;68.58;101668.22;5018955;28;20052;-46
2021/07/21 03:39:12;;;;;;;11.85;8.10;;;;;;;19.09;68.55;101662.22;5019027;28;20058;-49
2021/07/21 03:41:39;;;;;;;11.77;7.55;;;;;;;19.05;68.63;101660.56;5018874;28;20048;-45
2021/07/21 03:44:08;;;;;;;10.80;7.75;;;;;;;18.99;68.71;101665.69;5020550;28;20647;-44
2021/07/21 03:46:40;;;;;;;8.52;5.72;;;;;;;18.99;68.90;101674.09;5024675;28;20048;-45
2021/07/21 03:49:08;;;;;;;9.82;6.82;;;;;;;19.01;68.74;101673.75;5022842;28;20084;-43
2021/07/21 03:51:38;;;;;;;8.88;6.97;;;;;;;19.01;68.69;101665.31;5026846;28;20482;-50
2021/07/21 03:54:08;;;;;;;10.60;5.40;;;;;;;18.99;68.76;101681.72;5021783;28;20395;-44
2021/07/21 03:56:40;;;;;;;12.00;6.47;;;;;;;18.96;68.78;101682.47;5017509;28;20467;-45
2021/07/21 03:59:11;;;;;;;9.77;6.88;;;;;;;18.94;68.95;101679.25;5020804;28;20148;-44
2021/07/21 04:01:39;;;;;;;11.82;7.13;;;;;;;18.90;69.05;101684.00;5019340;28;20815;-46
2021/07/21 04:04:08;;;;;;;9.27;6.60;;;;;;;18.80;69.24;101686.25;5018617;28;20449;-44
2021/07/21 04:06:36;;;;;;;6.80;5.82;;;;;;;18.78;69.38;101685.84;5020617;28;20049;-43
2021/07/21 04:09:06;;;;;;;6.53;5.05;;;;;;;18.73;69.48;101677.75;5018702;28;20057;-50
2021/07/21 04:11:34;;;;;;;8.15;6.45;;;;;;;18.70;69.56;101680.50;5016602;28;20055;-51
2021/07/21 04:14:05;;;;;;;10.50;6.72;;;;;;;18.67;69.68;101684.88;5018207;28;20061;-52
2021/07/21 04:16:34;;;;;;;9.57;7.40;;;;;;;18.66;69.78;101683.25;5025020;28;20098;-43
2021/07/21 04:19:02;;;;;;;8.93;6.22;;;;;;;18.63;69.81;101677.59;5020197;28;21850;-44
2021/07/21 04:21:30;;;;;;;10.60;6.55;;;;;;;18.62;69.79;101682.38;5018919;28;20128;-44
2021/07/21 04:24:02;;;;;;;11.20;6.50;;;;;;;18.66;69.56;101691.69;5017617;28;20060;-52
2021/07/21 04:26:30;;;;;;;8.32;5.93;;;;;;;18.64;69.53;101691.22;5018430;28;20049;-46
2021/07/21 04:28:56;;;;;;;9.13;6.03;;;;;;;18.73;69.26;101694.59;5020706;28;20045;-48
2021/07/21 04:31:26;;;;;;;13.90;7.57;;;;;;;18.73;69.37;101693.78;5021056;28;20060;-45
2021/07/21 04:33:56;;;;;;;11.27;7.07;;;;;;;18.65;69.57;101697.66;5019664;28;20056;-43
2021/07/21 04:36:25;;;;;;;12.93;7.25;;;;;;;18.60;69.44;101692.38;5018061;28;20056;-45
2021/07/21 04:38:53;;;;;;;11.15;6.38;;;;;;;18.59;69.86;101694.34;5022880;28;20056;-43
2021/07/21 04:41:22;;;;;;;11.73;7.25;;;;;;;18.62;69.63;101690.81;5017094;28;20108;-45
2021/07/21 04:43:51;;;;;;;16.05;8.05;;;;;;;18.61;69.71;101685.59;5019657;28;20097;-43
2021/07/21 04:46:18;;;;;;;14.13;8.38;;;;;;;18.70;69.64;101698.16;5018346;28;20057;-45
2021/07/21 04:48:46;;;;;;;12.25;8.77;;;;;;;18.64;69.83;101701.63;5018519;28;20073;-44
2021/07/21 04:51:17;;;;;;;11.35;7.28;;;;;;;18.61;70.01;101691.97;5017503;28;20490;-43
2021/07/21 04:53:44;;;;;;;10.45;6.85;;;;;;;18.68;69.77;101696.91;5002835;28;20057;-44
2021/07/21 04:56:11;;;;;;;10.93;6.43;;;;;;;18.67;69.79;101701.69;5018908;28;20179;-43
2021/07/21 04:58:38;;;;;;;14.00;8.00;;;;;;;18.64;69.86;101696.03;5018321;28;20506;-42
2021/07/21 05:01:04;;;;;;;15.95;8.70;;;;;;;18.61;70.08;101691.19;5016595;28;20061;-44
2021/07/21 05:03:32;;;;;;;13.38;7.65;;;;;;;18.60;70.24;101695.16;4999236;28;20513;-48
2021/07/21 05:05:59;;;;;;;12.80;7.93;;;;;;;18.65;69.98;101692.84;5018694;28;20054;-48
2021/07/21 05:08:26;;;;;;;14.85;8.10;;;;;;;18.63;69.96;101706.47;5019988;28;20458;-45
2021/07/21 05:10:53;;;;;;;14.55;9.35;;;;;;;18.62;70.21;101699.22;5021274;28;20108;-45
2021/07/21 05:13:21;;;;;;;10.40;7.45;;;;;;;18.64;70.23;101710.03;5022507;28;20477;-49
2021/07/21 05:15:49;;;;;;;12.15;6.95;;;;;;;18.64;70.14;101701.63;5017300;28;20061;-43
2021/07/21 05:18:15;;;;;;;12.95;6.47;;;;;;;18.67;70.23;101714.91;5021999;28;20064;-44
2021/07/21 05:20:43;;;;;;;12.02;7.93;;;;;;;18.66;70.26;101711.31;5019872;28;20053;-45
2021/07/21 05:23:10;;;;;;;10.13;6.60;;;;;;;18.70;70.16;101712.16;5018907;28;20803;-44
2021/07/21 05:25:38;;;;;;;13.73;6.88;;;;;;;18.79;69.78;101709.91;5021152;28;20049;-45
2021/07/21 05:28:09;;;;;;;12.90;8.52;;;;;;;18.81;69.86;101712.34;5019422;28;20076;-44
2021/07/21 05:30:36;;;;;;;9.90;6.75;;;;;;;18.83;69.93;101710.75;5016025;28;20052;-43
2021/07/21 05:33:03;;;;;;;11.73;7.20;;;;;;;18.82;69.98;101714.75;5015687;28;20425;-52
2021/07/21 05:35:30;;;;;;;12.52;6.90;;;;;;;18.89;69.91;101716.88;5018750;28;20498;-46
2021/07/21 05:37:57;;;;;;;11.77;7.43;;;;;;;18.96;69.84;101721.75;5023415;28;20041;-44
2021/07/21 05:40:24;;;;;;;9.68;6.68;;;;;;;18.95;69.93;101722.97;5019532;28;20097;-47
2021/07/21 05:42:50;;;;;;;9.27;6.38;;;;;;;18.97;69.84;101724.19;5021445;28;20156;-43
2021/07/21 05:45:17;;;;;;;10.75;6.97;;;;;;;19.00;69.81;101731.06;5024620;28;20061;-44
2021/07/21 05:47:44;;;;;;;10.02;6.53;;;;;;;19.04;70.04;101721.50;5022820;28;20053;-51
2021/07/21 05:50:11;;;;;;;12.32;6.45;;;;;;;19.08;70.02;101721.56;5023545;28;20045;-51
2021/07/21 05:52:38;;;;;;;11.25;7.63;;;;;;;19.12;70.02;101733.63;5023683;28;20053;-45
2021/07/21 05:55:07;;;;;;;11.00;6.75;;;;;;;19.19;69.97;101733.75;5022712;28;20072;-51
2021/07/21 05:57:34;;;;;;;12.52;6.18;;;;;;;19.24;69.97;101731.41;5027612;28;20064;-48
2021/07/21 06:00:02;;;;;;;8.57;5.90;;;;;;;19.27;70.12;101735.47;5025987;28;20053;-43
2021/07/21 06:02:29;;;;;;;8.93;5.60;;;;;;;19.27;69.81;101730.63;5023411;28;20156;-49
2021/07/21 06:04:56;;;;;;;8.48;4.93;;;;;;;19.34;69.62;101735.56;5025427;28;20490;-43
2021/07/21 06:07:23;;;;;;;6.20;4.05;;;;;;;19.38;69.44;101739.22;5020253;28;20049;-53
2021/07/21 06:09:50;;;;;;;8.63;4.50;;;;;;;19.41;69.54;101730.03;5023299;28;20107;-46
2021/07/21 06:12:16;;;;;;;8.60;4.40;;;;;;;19.49;69.19;101736.56;5022522;28;20127;-46
2021/07/21 06:14:44;;;;;;;5.00;4.00;;;;;;;19.54;68.99;101744.69;5018454;28;20055;-44
2021/07/21 06:17:11;;;;;;;9.73;6.88;;;;;;;19.58;68.77;101746.34;5019539;28;20053;-44
2021/07/21 06:19:38;;;;;;;8.95;5.13;;;;;;;19.56;68.84;101748.72;5020072;28;20045;-46
2021/07/21 06:22:06;;;;;;;7.15;4.45;;;;;;;19.59;69.03;101752.75;5023236;28;20056;-45
2021/07/21 06:24:34;;;;;;;8.40;4.63;;;;;;;19.58;68.86;101749.13;5024320;28;20051;-44
2021/07/21 06:27:02;;;;;;;5.25;4.30;;;;;;;19.61;68.57;101747.56;5020373;28;20056;-44
2021/07/21 06:29:30;;;;;;;5.88;4.55;;;;;;;19.68;68.53;101759.69;5020318;28;20046;-48
2021/07/21 06:31:57;;;;;;;8.60;4.40;;;;;;;19.73;68.55;101758.53;5021689;28;20068;-43
2021/07/21 06:34:24;;;;;;;4.93;3.60;;;;;;;19.77;68.40;101753.78;5022639;28;20456;-54
2021/07/21 06:36:50;;;;;;;11.20;4.38;;;;;;;19.83;68.34;101760.69;5017391;28;20520;-44
2021/07/21 06:39:17;;;;;;;7.40;4.53;;;;;;;19.87;68.53;101756.72;5023307;28;20053;-45
2021/07/21 06:41:44;;;;;;;9.50;4.50;;;;;;;19.92;68.23;101755.56;5017927;28;20473;-47
2021/07/21 06:44:11;;;;;;;8.60;4.68;;;;;;;20.00;67.69;101758.06;5020729;28;20409;-51
2021/07/21 06:46:37;;;;;;;7.95;3.63;;;;;;;20.06;67.15;101750.09;5018178;28;20115;-44
2021/07/21 06:49:04;;;;;;;11.73;4.18;;;;;;;20.05;67.24;101757.72;5018758;28;20499;-45
2021/07/21 06:51:31;;;;;;;8.68;5.53;;;;;;;20.08;66.53;101753.34;5022753;28;20063;-45
2021/07/21 06:53:58;;;;;;;13.77;7.18;;;;;;;20.10;66.48;101767.00;5026188;28;20049;-44
2021/07/21 06:56:24;;;;;;;9.82;5.50;;;;;;;20.15;66.30;101763.84;5019081;28;20055;-47
2021/07/21 06:58:52;;;;;;;9.65;5.38;;;;;;;20.17;66.49;101756.66;5034149;28;20057;-50
2021/07/21 07:01:20;;;;;;;11.48;6.35;;;;;;;20.22;66.28;101764.75;5020073;28;20063;-45
2021/07/21 07:03:48;;;;;;;9.05;4.88;;;;;;;20.28;66.38;101763.19;5020622;28;20057;-44
2021/07/21 07:06:16;;;;;;;9.75;6.10;;;;;;;20.37;66.38;101765.69;5017413;28;20054;-45
2021/07/21 07:08:43;;;;;;;12.65;5.18;;;;;;;20.46;65.89;101763.38;5023377;28;20560;-44
2021/07/21 07:11:10;;;;;;;10.38;4.90;;;;;;;20.55;65.89;101767.50;5028427;28;20089;-45
2021/07/21 07:13:38;;;;;;;7.32;5.15;;;;;;;20.63;65.72;101776.78;5025259;28;20573;-50
2021/07/21 07:16:11;;;;;;;7.68;3.88;;;;;;;20.69;65.55;101768.81;5018687;28;20137;-52
2021/07/21 07:18:40;;;;;;;8.98;4.07;;;;;;;20.76;65.13;101777.31;5021670;28;20143;-48
2021/07/21 07:21:07;;;;;;;5.53;3.20;;;;;;;20.83;64.78;101772.56;5026985;28;20103;-49
2021/07/21 07:23:34;;;;;;;4.10;2.38;;;;;;;20.91;63.98;101776.22;5026096;28;20046;-45
2021/07/21 07:26:01;;;;;;;6.53;2.40;;;;;;;21.00;64.07;101780.31;5029971;28;20049;-45
2021/07/21 07:28:28;;;;;;;3.80;2.83;;;;;;;21.09;63.78;101778.00;5030197;28;20057;-44
2021/07/21 07:30:55;;;;;;;4.80;2.28;;;;;;;21.19;63.75;101787.72;5034668;28;20107;-45
2021/07/21 07:33:22;;;;;;;4.40;2.65;;;;;;;21.29;63.71;101783.38;5026765;28;20053;-45
2021/07/21 07:35:49;;;;;;;4.35;2.47;;;;;;;21.35;63.67;101787.41;5026539;28;20055;-44
2021/07/21 07:38:17;;;;;;;5.50;2.30;;;;;;;21.42;63.97;101784.66;4996362;28;20056;-43
2021/07/21 07:40:45;;;;;;;5.18;2.58;;;;;;;21.49;63.71;101781.88;5016623;28;20529;-45
2021/07/21 07:43:12;;;;;;;4.13;1.98;;;;;;;21.60;63.94;101782.72;5025390;28;20100;-45
2021/07/21 07:45:39;;;;;;;3.08;1.90;;;;;;;21.69;63.96;101792.44;5023124;28;20127;-44
2021/07/21 07:48:06;;;;;;;7.18;1.90;;;;;;;21.83;64.50;101786.03;5023486;28;20488;-48
2021/07/21 07:50:41;;;;;;;2.25;1.92;;;;;;;22.00;64.87;101785.31;5026055;28;20184;-46
2021/07/21 07:53:09;;;;;;;3.88;2.28;;;;;;;22.16;64.90;101782.16;5026840;28;20055;-45
2021/07/21 07:55:40;;;;;;;4.35;2.78;;;;;;;22.37;65.12;101790.66;5026065;28;20057;-45
2021/07/21 07:58:07;;;;;;;3.70;2.30;;;;;;;22.60;65.01;101785.44;5013770;28;20417;-48
2021/07/21 08:00:34;;;;;;;4.68;2.28;;;;;;;22.90;64.88;101787.91;5006423;28;20522;-49
2021/07/21 08:03:01;;;;;;;3.03;2.30;;;;;;;23.27;64.05;101778.97;5022447;28;20498;-45
2021/07/21 08:05:28;;;;;;;4.65;2.83;;;;;;;23.67;63.02;101778.47;5025960;28;20140;-43
2021/07/21 08:07:56;;;;;;;5.45;3.55;;;;;;;24.09;61.81;101786.00;5022383;28;20153;-42
2021/07/21 08:10:24;;;;;;;6.38;4.20;;;;;;;24.67;60.15;101794.50;5026696;28;20053;-47
2021/07/21 08:12:51;;;;;;;5.63;2.80;;;;;;;25.24;57.90;101794.81;5025369;28;20055;-47
2021/07/21 08:15:18;;;;;;;8.38;3.88;;;;;;;25.85;56.36;101792.91;5010257;28;20070;-43
2021/07/21 08:17:45;;;;;;;8.70;3.15;;;;;;;26.46;55.01;101801.41;5018375;28;20049;-43
2021/07/21 08:20:12;;;;;;;3.15;2.38;;;;;;;27.03;53.65;101790.75;5006771;28;20462;-45
2021/07/21 08:22:40;;;;;;;4.18;2.72;;;;;;;27.58;52.01;101789.34;5005236;28;20399;-45
2021/07/21 08:25:13;;;;;;;7.03;3.80;;;;;;;28.03;49.54;101790.44;5024027;28;20053;-48
2021/07/21 08:27:40;;;;;;;7.95;3.25;;;;;;;28.37;49.71;101790.06;5025822;28;20717;-43
2021/07/21 08:30:12;;;;;;;7.38;3.65;;;;;;;28.73;48.83;101787.97;5024314;28;20061;-45
2021/07/21 08:32:48;;;;;;;10.30;4.70;;;;;;;29.01;47.74;101792.16;5025747;28;20045;-48
2021/07/21 08:35:18;;;;;;;7.80;4.97;;;;;;;29.29;47.02;101776.38;5025250;28;20060;-45
2021/07/21 08:37:45;;;;;;;9.70;4.47;;;;;;;29.61;46.15;101787.69;5021519;28;20053;-43
2021/07/21 08:40:13;;;;;;;6.88;3.90;;;;;;;29.79;45.30;101787.19;5026382;28;20148;-45
2021/07/21 08:42:40;;;;;;;10.07;4.43;;;;;;;30.08;44.99;101790.78;5004995;28;20042;-45
2021/07/21 08:45:09;;;;;;;11.93;4.25;;;;;;;30.25;44.22;101792.31;5025172;28;20049;-44
2021/07/21 08:47:36;;;;;;;8.32;4.15;;;;;;;30.34;43.58;101792.41;5017186;28;20111;-50
2021/07/21 08:50:05;;;;;;;7.70;3.97;;;;;;;30.52;43.39;101786.16;5026309;28;20055;-46
2021/07/21 08:52:31;;;;;;;8.23;4.35;;;;;;;30.70;42.80;101792.09;5017074;28;20069;-44
2021/07/21 08:54:58;;;;;;;10.80;4.18;;;;;;;30.82;42.86;101799.06;5024385;28;20085;-44
2021/07/21 08:57:32;;;;;;;8.60;4.30;;;;;;;30.84;42.44;101790.81;5024736;28;20061;-44
2021/07/21 08:59:59;;;;;;;8.15;3.95;;;;;;;30.79;42.09;101788.53;5025052;28;20053;-45
2021/07/21 09:02:27;;;;;;;9.27;4.22;;;;;;;30.66;41.85;101792.19;5023183;28;20244;-43
2021/07/21 09:04:56;;;;;;;7.80;3.25;;;;;;;30.86;41.85;101791.16;5024913;28;20111;-45
2021/07/21 09:07:23;;;;;;;6.18;2.85;;;;;;;31.02;42.22;101793.91;5023570;28;20053;-46
2021/07/21 09:10:08;;;;;;;5.93;3.30;;;;;;;31.16;41.36;101796.28;5024553;28;20141;-43
2021/07/21 09:12:42;;;;;;;4.90;2.47;;;;;;;31.29;39.69;101797.84;5028866;28;20491;-44
2021/07/21 09:15:13;;;;;;;5.65;2.80;;;;;;;31.14;40.95;101796.72;5034592;28;20049;-45
2021/07/21 09:18:16;;;;;;;3.20;2.40;;;;;;;31.02;40.62;101796.75;5028693;28;20733;-44
2021/07/21 09:20:47;;;;;;;3.20;2.08;;;;;;;31.14;40.76;101793.03;5028402;28;20144;-46
2021/07/21 09:23:14;;;;;;;3.42;2.20;;;;;;;31.27;40.54;101800.34;5028539;28;20085;-44
2021/07/21 09:25:43;;;;;;;4.03;2.10;;;;;;;31.48;39.86;101789.44;5028974;28;20057;-43
2021/07/21 09:28:12;;;;;;;5.28;2.40;;;;;;;31.62;39.60;101789.69;5009489;28;20148;-46
2021/07/21 09:30:45;;;;;;;2.92;1.98;;;;;;;31.64;39.22;101780.66;5028969;28;20053;-45
2021/07/21 09:33:17;;;;;;;4.22;2.22;;;;;;;31.73;39.51;101778.63;5027551;28;20057;-43
2021/07/21 09:35:51;;;;;;;4.85;2.05;;;;;;;31.85;38.91;101780.59;5028131;28;20156;-43
2021/07/21 09:38:24;;;;;;;3.22;2.80;;;;;;;31.83;38.66;101788.06;5025935;28;20065;-45
2021/07/21 09:41:04;;;;;;;8.32;1.80;;;;;;;31.78;38.46;101782.94;5013444;28;20113;-46
2021/07/21 09:43:33;;;;;;;3.30;1.88;;;;;;;31.74;38.54;101779.44;5024625;28;20050;-42
2021/07/21 09:46:11;;;;;;;3.15;2.17;;;;;;;31.78;38.75;101788.69;5028832;28;20233;-52
2021/07/21 09:48:38;;;;;;;5.53;2.05;;;;;;;31.85;38.61;101779.84;5024092;28;20064;-42
2021/07/21 09:51:05;;;;;;;5.38;2.00;;;;;;;31.97;37.85;101787.53;5028134;28;20053;-43
2021/07/21 09:53:48;;;;;;;2.85;1.75;;;;;;;32.02;36.87;101789.00;5033963;28;20033;-46
2021/07/21 09:56:30;;;;;;;3.10;1.67;;;;;;;31.84;36.68;101787.63;5027911;28;20057;-42
2021/07/21 09:59:19;;;;;;;5.28;2.10;;;;;;;31.89;37.37;101792.75;5027384;28;20088;-47
2021/07/21 10:01:47;;;;;;;4.35;1.88;;;;;;;32.06;37.22;101792.56;5008616;28;20049;-42
2021/07/21 10:04:38;;;;;;;4.75;1.70;;;;;;;32.08;36.46;101793.69;5025571;28;20046;-43
2021/07/21 10:07:44;;;;;;;3.47;1.50;;;;;;;31.99;37.09;101790.72;5037536;28;20536;-43
2021/07/21 10:09:55;;;;;;;4.80;1.50;;;;;;;32.04;37.32;101797.97;5023084;28;20061;-43
2021/07/21 10:12:22;;;;;;;1.83;1.73;;;;;;;31.96;37.07;101790.88;5010094;28;20518;-44
2021/07/21 10:14:57;;;;;;;4.38;1.75;;;;;;;32.11;36.70;101800.53;5027509;28;20057;-44
2021/07/21 10:17:25;;;;;;;2.20;1.75;;;;;;;32.10;37.07;101796.88;5026469;28;20064;-43
2021/07/21 10:19:53;;;;;;;2.72;1.67;;;;;;;31.97;37.08;101801.06;5027613;28;20042;-50
2021/07/21 10:22:21;;;;;;;2.55;1.80;;;;;;;32.03;37.03;101799.22;5027553;28;20053;-46
2021/07/21 10:24:51;;;;;;;2.92;1.60;;;;;;;32.04;36.53;101800.84;5027259;28;20051;-50
2021/07/21 10:27:20;;;;;;;3.90;1.58;;;;;;;31.82;36.28;101806.53;5005704;28;20578;-43
2021/07/21 10:29:46;;;;;;;5.78;1.63;;;;;;;31.61;36.88;101815.94;5007560;28;20136;-43
2021/07/21 10:32:16;;;;;;;4.55;1.80;;;;;;;31.45;36.74;101807.50;5006333;28;20789;-44
2021/07/21 10:34:45;;;;;;;1.83;1.50;;;;;;;31.48;36.97;101807.38;5007956;28;20144;-48
2021/07/21 10:37:12;;;;;;;2.10;1.75;;;;;;;31.31;37.40;101808.81;4999299;28;20261;-44
2021/07/21 10:39:39;;;;;;;4.45;1.98;;;;;;;31.20;37.19;101809.19;5004427;28;20058;-45
2021/07/21 10:42:09;;;;;;;3.08;1.77;;;;;;;31.01;37.43;101812.31;5006402;28;20492;-45
2021/07/21 10:44:37;;;;;;;3.53;1.90;;;;;;;30.89;37.48;101811.06;5005500;28;20531;-43
2021/07/21 10:47:25;;;;;;;3.35;1.92;;;;;;;30.79;37.57;101817.13;5005162;28;20046;-45
2021/07/21 10:49:59;;;;;;;4.53;1.80;;;;;;;30.68;37.82;101809.72;5005142;28;20050;-43
2021/07/21 10:55:08;;;;;;;4.47;1.55;;;;;;;30.23;38.43;101803.41;5002513;28;20060;-46
2021/07/21 11:00:32;;;;;;;4.97;1.50;;;;;;;29.94;39.15;101811.22;5005596;28;20050;-44
2021/07/21 11:03:25;;;;;;;3.65;1.75;;;;;;;29.54;39.61;101805.81;5005556;28;20499;-44
2021/07/21 11:06:05;;;;;;;1.45;1.35;;;;;;;29.44;40.21;101809.75;5002293;28;20149;-43
2021/07/21 11:08:32;;;;;;;4.18;1.92;;;;;;;29.22;40.58;101807.94;5002898;28;20096;-44
2021/07/21 11:11:10;;;;;;;3.00;1.75;;;;;;;29.13;40.55;101805.69;5021274;28;20049;-43
2021/07/21 11:13:40;;;;;;;4.38;1.92;;;;;;;29.05;40.99;101809.16;5005696;28;20061;-43
2021/07/21 11:16:37;;;;;;;3.40;1.90;;;;;;;29.04;41.17;101811.25;5004834;28;20091;-44
2021/07/21 11:19:41;;;;;;;3.72;1.50;;;;;;;29.10;41.12;101806.59;5002512;28;20054;-43
2021/07/21 11:22:09;;;;;;;8.93;1.60;;;;;;;29.00;41.07;101810.50;5011269;28;20058;-44
2021/07/21 11:25:00;;;;;;;2.58;1.65;;;;;;;28.87;41.47;101798.22;4979042;28;20511;-45
2021/07/21 11:27:41;;;;;;;;;;;;;;;28.65;41.96;101808.56;5015594;28;20136;-42
2021/07/21 11:30:30;;;;;;;5.55;1.65;;;;;;;28.57;42.05;101807.88;5016999;28;19925;-43
2021/07/21 11:32:57;;;;;;;8.38;1.50;;;;;;;28.53;41.78;101812.09;5017718;28;20057;-44
2021/07/21 11:35:40;;;;;;;4.68;1.58;;;;;;;28.48;42.04;101812.63;5020883;28;20140;-43
2021/07/21 11:38:19;;;;;;;5.25;1.60;;;;;;;28.44;42.70;101809.03;5035550;28;20079;-44
2021/07/21 11:40:46;;;;;;;3.92;2.15;;;;;;;28.37;42.57;101805.13;5024815;28;20115;-51
2021/07/21 11:43:35;;;;;;;4.75;1.70;;;;;;;28.25;42.24;101807.88;5025952;28;20493;-43